createdAt,value
2018-04-18T00:00:03.549Z,78.90
2018-04-18T00:02:31.208Z,78.90
2018-04-18T00:04:58.905Z,78.60
2018-04-18T00:07:28.048Z,77.30
2018-04-18T00:09:55.837Z,77.30
2018-04-18T00:12:23.476Z,77.90
2018-04-18T00:14:51.193Z,77.80
2018-04-18T00:17:18.956Z,77.70
2018-04-18T00:19:46.691Z,77.50
2018-04-18T00:22:14.372Z,78.50
2018-04-18T00:24:42.120Z,77.20
2018-04-18T00:27:09.752Z,78.20
2018-04-18T00:29:37.473Z,77.50
2018-04-18T00:32:05.149Z,77.60
2018-04-18T00:34:33.689Z,77.80
2018-04-18T00:37:01.352Z,77.80
2018-04-18T00:39:28.967Z,77.80
2018-04-18T00:41:57.413Z,77.50
2018-04-18T00:44:25.982Z,78.10
2018-04-18T00:46:53.609Z,77.30
2018-04-18T00:49:21.302Z,77.30
2018-04-18T00:51:48.940Z,77.90
2018-04-18T00:54:16.743Z,77.70
2018-04-18T00:56:44.526Z,77.70
2018-04-18T00:59:12.152Z,78.20
2018-04-18T01:01:39.847Z,78.00
2018-04-18T01:04:07.540Z,77.90
2018-04-18T01:06:35.992Z,78.40
2018-04-18T01:09:03.616Z,78.40
2018-04-18T01:11:31.286Z,78.60
2018-04-18T01:13:58.924Z,77.90
2018-04-18T01:16:26.718Z,77.30
2018-04-18T01:18:54.519Z,77.00
2018-04-18T01:21:22.770Z,77.20
2018-04-18T01:23:50.412Z,76.40
2018-04-18T01:26:18.113Z,77.10
2018-04-18T01:28:45.845Z,77.20
2018-04-18T01:31:13.513Z,76.90
2018-04-18T01:33:41.144Z,77.00
2018-04-18T01:36:08.866Z,77.10
2018-04-18T01:38:36.512Z,77.00
2018-04-18T01:41:04.149Z,76.40
2018-04-18T01:43:31.822Z,76.50
2018-04-18T01:45:59.476Z,76.30
2018-04-18T01:48:27.087Z,76.80
2018-04-18T01:50:55.464Z,76.10
2018-04-18T01:53:23.884Z,76.60
2018-04-18T01:55:51.600Z,76.40
2018-04-18T01:58:19.984Z,77.60
2018-04-18T02:00:47.914Z,77.60
2018-04-18T02:03:15.611Z,77.60
2018-04-18T02:05:44.160Z,77.40
2018-04-18T02:08:12.027Z,77.40
2018-04-18T02:10:39.673Z,77.40
2018-04-18T02:13:07.333Z,77.70
2018-04-18T02:15:35.126Z,77.40
2018-04-18T02:18:03.702Z,77.70
2018-04-18T02:20:31.311Z,77.60
2018-04-18T02:22:59.845Z,76.90
2018-04-18T02:25:27.537Z,76.80
2018-04-18T02:27:55.271Z,77.60
2018-04-18T02:30:22.970Z,77.50
2018-04-18T02:32:52.309Z,76.50
2018-04-18T02:35:20.029Z,76.40
2018-04-18T02:37:48.512Z,76.80
2018-04-18T02:40:16.160Z,76.80
2018-04-18T02:42:43.943Z,76.40
2018-04-18T02:45:12.345Z,76.30
2018-04-18T02:47:40.972Z,78.30
2018-04-18T02:50:08.648Z,78.30
2018-04-18T02:52:36.411Z,77.90
2018-04-18T02:55:04.982Z,78.30
2018-04-18T02:57:32.624Z,78.40
2018-04-18T03:00:00.306Z,78.00
2018-04-18T03:02:27.998Z,78.90
2018-04-18T03:04:55.762Z,78.10
2018-04-18T03:07:23.503Z,77.30
2018-04-18T03:09:51.343Z,77.40
2018-04-18T03:12:19.036Z,76.70
2018-04-18T03:14:46.792Z,77.10
2018-04-18T03:17:15.305Z,77.00
2018-04-18T03:19:42.916Z,78.50
2018-04-18T03:22:10.638Z,79.40
2018-04-18T03:24:39.110Z,79.30
2018-04-18T03:27:06.760Z,79.80
2018-04-18T03:29:34.417Z,80.60
2018-04-18T03:32:02.099Z,80.60
2018-04-18T03:34:29.744Z,80.70
2018-04-18T03:36:57.388Z,80.90
2018-04-18T03:39:25.085Z,80.70
2018-04-18T03:41:53.463Z,80.70
2018-04-18T03:44:21.079Z,80.70
2018-04-18T03:46:48.727Z,80.80
2018-04-18T03:49:16.527Z,81.00
2018-04-18T03:51:44.296Z,81.00
2018-04-18T03:54:12.543Z,80.90
2018-04-18T03:56:40.261Z,81.00
2018-04-18T03:59:08.664Z,81.10
2018-04-18T04:01:37.292Z,80.80
2018-04-18T04:04:04.900Z,80.70
2018-04-18T04:06:33.342Z,79.30
2018-04-18T04:09:00.981Z,79.10
2018-04-18T04:11:28.774Z,79.40
2018-04-18T04:13:56.536Z,79.40
2018-04-18T04:16:36.272Z,79.90
2018-04-18T04:19:15.872Z,79.90
2018-04-18T04:21:56.200Z,79.80
2018-04-18T04:24:36.032Z,79.80
2018-04-18T04:27:03.794Z,80.00
2018-04-18T04:29:31.424Z,79.00
2018-04-18T04:32:00.426Z,79.00
2018-04-18T04:34:28.119Z,78.90
2018-04-18T04:36:55.796Z,78.00
2018-04-18T04:39:23.458Z,76.40
2018-04-18T04:41:51.299Z,74.30
2018-04-18T04:44:19.065Z,73.90
2018-04-18T04:46:46.719Z,71.80
2018-04-18T04:49:14.489Z,71.10
2018-04-18T04:51:42.103Z,70.80
2018-04-18T04:54:10.632Z,66.80
2018-04-18T04:56:38.499Z,66.80
2018-04-18T04:59:06.271Z,67.50
2018-04-18T05:01:33.943Z,65.10
2018-04-18T05:04:01.694Z,63.80
2018-04-18T05:06:29.337Z,63.60
2018-04-18T05:08:56.952Z,61.80
2018-04-18T05:11:24.612Z,63.80
2018-04-18T05:13:52.248Z,62.10
2018-04-18T05:16:19.853Z,61.80
2018-04-18T05:18:48.484Z,61.70
2018-04-18T05:21:16.194Z,61.70
2018-04-18T05:23:43.861Z,59.90
2018-04-18T05:26:12.497Z,58.90
2018-04-18T05:28:40.372Z,58.90
2018-04-18T05:31:08.127Z,60.30
2018-04-18T05:33:35.752Z,59.50
2018-04-18T05:36:04.188Z,63.80
2018-04-18T05:38:31.944Z,63.70
2018-04-18T05:40:59.699Z,62.40
2018-04-18T05:43:27.324Z,61.40
2018-04-18T05:45:55.733Z,63.10
2018-04-18T05:48:23.505Z,63.10
2018-04-18T05:50:51.112Z,62.50
2018-04-18T05:53:19.490Z,64.60
2018-04-18T05:55:48.131Z,63.80
2018-04-18T05:58:15.750Z,63.80
2018-04-18T06:00:45.089Z,63.10
2018-04-18T06:03:12.964Z,63.00
2018-04-18T06:05:40.590Z,62.10
2018-04-18T06:08:08.204Z,63.80
2018-04-18T06:10:35.860Z,62.90
2018-04-18T06:13:03.535Z,62.00
2018-04-18T06:15:31.378Z,58.60
2018-04-18T06:17:59.033Z,57.30
2018-04-18T06:20:26.681Z,53.20
2018-04-18T06:22:54.465Z,49.70
2018-04-18T06:25:22.157Z,50.80
2018-04-18T06:27:49.776Z,49.00
2018-04-18T06:30:17.554Z,49.40
2018-04-18T06:32:45.236Z,48.70
2018-04-18T06:35:13.084Z,48.10
2018-04-18T06:37:40.748Z,48.40
2018-04-18T06:40:08.365Z,50.00
2018-04-18T06:42:36.921Z,50.30
2018-04-18T06:45:05.576Z,50.20
2018-04-18T06:47:33.443Z,52.50
2018-04-18T06:50:01.068Z,51.50
2018-04-18T06:52:28.676Z,54.50
2018-04-18T06:54:56.431Z,53.60
2018-04-18T06:57:24.230Z,54.10
2018-04-18T06:59:51.960Z,55.50
2018-04-18T07:02:19.725Z,54.30
2018-04-18T07:04:48.207Z,51.80
2018-04-18T07:07:15.973Z,50.30
2018-04-18T07:09:43.752Z,48.20
2018-04-18T07:12:11.368Z,47.40
2018-04-18T07:14:39.093Z,48.30
2018-04-18T07:17:06.764Z,48.20
2018-04-18T07:19:34.411Z,50.80
2018-04-18T07:22:02.094Z,51.70
2018-04-18T07:24:30.545Z,54.90
2018-04-18T07:26:58.176Z,54.80
2018-04-18T07:29:25.813Z,54.00
2018-04-18T07:31:54.236Z,55.20
2018-04-18T07:34:21.862Z,55.20
2018-04-18T07:36:49.589Z,56.70
2018-04-18T07:39:17.252Z,54.80
2018-04-18T07:41:44.901Z,56.10
2018-04-18T07:44:12.572Z,55.70
2018-04-18T07:46:40.208Z,55.70
2018-04-18T07:49:07.828Z,55.90
2018-04-18T07:51:36.296Z,57.40
2018-04-18T07:54:04.737Z,55.80
2018-04-18T07:56:32.345Z,55.80
2018-04-18T07:59:00.777Z,55.30
2018-04-18T08:01:28.466Z,55.40
2018-04-18T08:03:56.200Z,54.60
2018-04-18T08:06:23.965Z,54.60
2018-04-18T08:08:51.629Z,54.30
2018-04-18T08:11:19.424Z,52.60
2018-04-18T08:13:47.157Z,55.30
2018-04-18T08:16:14.769Z,56.00
2018-04-18T08:18:43.184Z,55.20
2018-04-18T08:21:10.963Z,55.10
2018-04-18T08:23:38.727Z,56.00
2018-04-18T08:26:06.494Z,55.00
2018-04-18T08:28:34.360Z,55.60
2018-04-18T08:31:02.125Z,55.90
2018-04-18T08:33:29.921Z,57.60
2018-04-18T08:35:57.535Z,55.70
2018-04-18T08:38:25.140Z,57.10
2018-04-18T08:40:52.808Z,55.70
2018-04-18T08:43:20.415Z,56.50
2018-04-18T08:45:48.202Z,54.40
2018-04-18T08:48:15.895Z,56.40
2018-04-18T08:50:43.628Z,53.90
2018-04-18T08:53:11.396Z,54.50
2018-04-18T08:55:39.005Z,55.30
2018-04-18T08:58:07.420Z,54.10
2018-04-18T09:00:35.032Z,54.00
2018-04-18T09:03:02.650Z,54.20
2018-04-18T09:05:30.422Z,53.20
2018-04-18T09:07:58.185Z,51.70
2018-04-18T09:10:25.951Z,53.30
2018-04-18T09:12:53.715Z,54.40
2018-04-18T09:15:21.344Z,49.40
2018-04-18T09:17:49.069Z,53.10
2018-04-18T09:20:16.716Z,53.20
2018-04-18T09:22:44.468Z,54.20
2018-04-18T09:25:12.162Z,52.70
2018-04-18T09:27:39.777Z,53.70
2018-04-18T09:30:07.409Z,55.30
2018-04-18T09:32:35.844Z,54.10
2018-04-18T09:35:03.548Z,54.00
2018-04-18T09:37:32.848Z,51.90
2018-04-18T09:40:01.224Z,53.10
2018-04-18T09:42:29.656Z,52.60
2018-04-18T09:44:57.268Z,52.60
2018-04-18T09:47:25.700Z,52.80
2018-04-18T09:49:53.360Z,52.80
2018-04-18T09:52:21.027Z,52.90
2018-04-18T09:54:48.788Z,52.40
2018-04-18T09:57:16.592Z,50.70
2018-04-18T09:59:44.972Z,47.00
2018-04-18T10:02:31.368Z,46.90
2018-04-18T10:05:04.935Z,47.40
2018-04-18T10:07:32.576Z,47.20
2018-04-18T10:10:00.364Z,48.30
2018-04-18T10:12:27.980Z,48.40
2018-04-18T10:14:56.430Z,47.50
2018-04-18T10:17:24.043Z,47.50
2018-04-18T10:19:51.757Z,47.60
2018-04-18T10:22:20.232Z,47.10
2018-04-18T10:24:49.240Z,46.70
2018-04-18T10:27:16.889Z,47.20
2018-04-18T10:29:44.547Z,45.90
2018-04-18T10:32:12.151Z,46.80
2018-04-18T10:34:40.571Z,47.00
2018-04-18T10:37:08.215Z,47.00
2018-04-18T10:39:35.815Z,45.80
2018-04-18T10:42:03.556Z,46.40
2018-04-18T10:44:31.320Z,46.60
2018-04-18T10:46:59.085Z,46.40
2018-04-18T10:49:26.707Z,46.30
2018-04-18T10:51:55.121Z,46.60
2018-04-18T10:54:22.779Z,46.50
2018-04-18T10:56:50.556Z,46.40
2018-04-18T10:59:18.351Z,45.90
2018-04-18T11:01:45.972Z,45.20
2018-04-18T11:04:13.611Z,45.30
2018-04-18T11:06:41.297Z,44.70
2018-04-18T11:09:08.912Z,45.50
2018-04-18T11:11:37.454Z,45.50
2018-04-18T11:14:05.246Z,45.50
2018-04-18T11:16:32.900Z,44.60
2018-04-18T11:19:00.566Z,44.60
2018-04-18T11:21:28.212Z,45.00
2018-04-18T11:23:55.808Z,44.60
2018-04-18T11:26:24.388Z,45.20
2018-04-18T11:28:52.333Z,45.10
2018-04-18T11:31:19.990Z,45.10
2018-04-18T11:33:47.744Z,45.10
2018-04-18T11:36:15.436Z,44.00
2018-04-18T11:38:44.810Z,42.20
2018-04-18T11:41:12.502Z,42.20
2018-04-18T11:43:40.275Z,43.10
2018-04-18T11:46:08.828Z,42.60
2018-04-18T11:48:36.431Z,42.60
2018-04-18T11:51:04.894Z,42.60
2018-04-18T11:53:33.557Z,42.80
2018-04-18T11:56:01.415Z,42.80
2018-04-18T11:58:29.056Z,42.20
2018-04-18T12:00:56.842Z,41.50
2018-04-18T12:03:24.635Z,42.50
2018-04-18T12:05:53.121Z,42.60
2018-04-18T12:08:20.956Z,41.80
2018-04-18T12:10:48.660Z,42.30
2018-04-18T12:13:17.208Z,41.30
2018-04-18T12:15:45.072Z,41.30
2018-04-18T12:18:12.713Z,40.20
2018-04-18T12:20:40.539Z,40.30
2018-04-18T12:23:08.187Z,40.50
2018-04-18T12:25:36.742Z,40.40
2018-04-18T12:28:04.611Z,40.50
2018-04-18T12:30:32.377Z,40.70
2018-04-18T12:32:59.992Z,40.80
2018-04-18T12:35:28.555Z,40.50
2018-04-18T12:37:57.021Z,40.00
2018-04-18T12:40:24.867Z,40.00
2018-04-18T12:42:52.652Z,40.20
2018-04-18T12:45:20.397Z,40.40
2018-04-18T12:47:48.057Z,41.00
2018-04-18T12:50:15.677Z,41.80
2018-04-18T12:52:44.099Z,42.30
2018-04-18T12:55:11.747Z,42.20
2018-04-18T12:57:39.360Z,42.00
2018-04-18T13:00:07.189Z,42.60
2018-04-18T13:02:34.832Z,41.90
2018-04-18T13:05:02.445Z,41.90
2018-04-18T13:07:30.060Z,41.10
2018-04-18T13:09:57.869Z,41.40
2018-04-18T13:12:25.495Z,41.00
2018-04-18T13:14:53.157Z,40.80
2018-04-18T13:17:20.772Z,41.10
2018-04-18T13:19:49.205Z,41.20
2018-04-18T13:22:17.621Z,41.20
2018-04-18T13:24:45.284Z,41.60
2018-04-18T13:27:13.865Z,41.90
2018-04-18T13:29:41.501Z,41.80
2018-04-18T13:32:09.116Z,42.10
2018-04-18T13:34:37.670Z,43.30
2018-04-18T13:37:05.503Z,42.60
2018-04-18T13:39:33.133Z,41.30
2018-04-18T13:42:00.929Z,41.20
2018-04-18T13:44:28.547Z,41.20
2018-04-18T13:46:56.927Z,40.80
2018-04-18T13:49:25.335Z,41.50
2018-04-18T13:51:53.116Z,41.40
2018-04-18T13:54:20.760Z,41.70
2018-04-18T13:56:48.404Z,42.20
2018-04-18T13:59:16.206Z,43.00
2018-04-18T14:01:44.752Z,43.60
2018-04-18T14:04:13.168Z,43.10
2018-04-18T14:06:41.037Z,43.00
2018-04-18T14:09:08.800Z,43.30
2018-04-18T14:11:36.564Z,43.40
2018-04-18T14:14:04.216Z,43.70
2018-04-18T14:16:31.993Z,44.30
2018-04-18T14:18:59.612Z,44.50
2018-04-18T14:21:28.240Z,45.40
2018-04-18T14:23:56.006Z,45.30
2018-04-18T14:26:23.667Z,45.60
2018-04-18T14:28:51.330Z,45.90
2018-04-18T14:31:19.017Z,46.40
2018-04-18T14:33:46.670Z,46.20
2018-04-18T14:36:14.379Z,46.30
2018-04-18T14:38:42.114Z,46.20
2018-04-18T14:41:09.877Z,45.90
2018-04-18T14:43:37.521Z,45.90
2018-04-18T14:46:05.169Z,45.50
2018-04-18T14:48:32.860Z,45.50
2018-04-18T14:51:00.504Z,45.30
2018-04-18T14:53:28.112Z,45.40
2018-04-18T14:55:56.480Z,43.00
2018-04-18T14:58:24.933Z,42.90
2018-04-18T15:00:52.532Z,42.70
2018-04-18T15:03:20.903Z,41.90
2018-04-18T15:05:50.365Z,41.80
2018-04-18T15:08:18.050Z,41.70
2018-04-18T15:10:45.965Z,40.60
2018-04-18T15:13:14.473Z,41.50
2018-04-18T15:15:42.089Z,41.40
2018-04-18T15:18:09.849Z,39.80
2018-04-18T15:20:38.258Z,40.90
2018-04-18T15:23:05.973Z,40.80
2018-04-18T15:25:33.810Z,40.40
2018-04-18T15:28:01.516Z,39.70
2018-04-18T15:30:29.953Z,39.40
2018-04-18T15:32:57.750Z,39.30
2018-04-18T15:35:25.364Z,39.30
2018-04-18T15:37:53.150Z,36.10
2018-04-18T15:40:20.804Z,34.00
2018-04-18T15:42:48.573Z,33.30
2018-04-18T15:45:16.342Z,34.60
2018-04-18T15:47:44.034Z,34.10
2018-04-18T15:50:11.657Z,32.60
2018-04-18T15:52:39.296Z,33.20
2018-04-18T15:55:06.903Z,33.40
2018-04-18T15:57:34.756Z,36.50
2018-04-18T16:00:02.447Z,36.40
2018-04-18T16:02:30.097Z,36.10
2018-04-18T16:04:58.590Z,36.00
2018-04-18T16:07:26.249Z,35.40
2018-04-18T16:09:53.889Z,36.30
2018-04-18T16:12:21.753Z,35.40
2018-04-18T16:14:49.360Z,33.50
2018-04-18T16:17:17.732Z,38.20
2018-04-18T16:19:45.392Z,38.20
2018-04-18T16:22:12.995Z,36.60
2018-04-18T16:24:40.599Z,37.10
2018-04-18T16:27:08.445Z,37.30
2018-04-18T16:29:42.892Z,36.80
2018-04-18T16:32:10.732Z,36.90
2018-04-18T16:34:38.494Z,37.20
2018-04-18T16:37:06.260Z,37.30
2018-04-18T16:39:33.909Z,37.80
2018-04-18T16:42:01.686Z,38.30
2018-04-18T16:44:30.111Z,38.70
2018-04-18T16:46:58.652Z,38.90
2018-04-18T16:49:26.413Z,38.60
2018-04-18T16:51:54.025Z,38.90
2018-04-18T16:54:22.510Z,39.70
2018-04-18T16:56:51.039Z,42.50
2018-04-18T16:59:18.651Z,42.60
2018-04-18T17:01:47.070Z,43.00
2018-04-18T17:04:14.768Z,42.90
2018-04-18T17:06:42.436Z,43.10
2018-04-18T17:09:10.272Z,42.50
2018-04-18T17:11:37.881Z,42.50
2018-04-18T17:14:06.300Z,43.00
2018-04-18T17:16:34.007Z,42.80
2018-04-18T17:19:02.379Z,43.90
2018-04-18T17:21:30.283Z,43.90
2018-04-18T17:23:57.901Z,44.40
2018-04-18T17:26:25.576Z,44.70
2018-04-18T17:28:53.517Z,45.00
2018-04-18T17:31:21.137Z,45.10
2018-04-18T17:33:49.597Z,45.60
2018-04-18T17:36:18.061Z,46.10
2018-04-18T17:38:45.679Z,45.80
2018-04-18T17:41:13.326Z,46.10
2018-04-18T17:43:41.879Z,46.60
2018-04-18T17:46:09.508Z,47.30
2018-04-18T17:48:37.259Z,46.70
2018-04-18T17:51:04.875Z,46.90
2018-04-18T17:53:34.012Z,47.20
2018-04-18T17:56:01.680Z,47.20
2018-04-18T17:58:29.283Z,47.40
2018-04-18T18:00:56.928Z,47.40
2018-04-18T18:03:24.569Z,47.60
2018-04-18T18:05:52.374Z,47.80
2018-04-18T18:08:20.764Z,47.90
2018-04-18T18:10:48.377Z,48.00
2018-04-18T18:13:16.012Z,48.00
2018-04-18T18:15:43.812Z,48.10
2018-04-18T18:18:11.679Z,48.50
2018-04-18T18:20:39.446Z,48.60
2018-04-18T18:23:07.138Z,48.60
2018-04-18T18:25:34.812Z,48.80
2018-04-18T18:28:04.275Z,49.50
2018-04-18T18:30:32.042Z,48.90
2018-04-18T18:32:59.759Z,49.20
2018-04-18T18:35:28.286Z,49.50
2018-04-18T18:37:55.928Z,49.50
2018-04-18T18:40:23.642Z,49.80
2018-04-18T18:42:51.252Z,50.10
2018-04-18T18:45:18.864Z,49.90
2018-04-18T18:47:48.236Z,50.20
2018-04-18T18:50:15.873Z,50.20
2018-04-18T18:52:43.488Z,51.00
2018-04-18T18:55:11.136Z,51.00
2018-04-18T18:57:38.749Z,51.00
2018-04-18T19:00:06.472Z,53.60
2018-04-18T19:02:34.313Z,52.60
2018-04-18T19:05:02.007Z,53.20
2018-04-18T19:07:29.768Z,52.90
2018-04-18T19:09:57.539Z,54.70
2018-04-18T19:12:25.191Z,54.10
2018-04-18T19:14:52.861Z,53.80
2018-04-18T19:17:20.476Z,54.10
2018-04-18T19:19:48.187Z,54.40
2018-04-18T19:22:15.857Z,55.10
2018-04-18T19:24:44.376Z,54.40
2018-04-18T19:27:12.040Z,55.10
2018-04-18T19:29:39.829Z,54.90
2018-04-18T19:32:07.595Z,55.30
2018-04-18T19:34:35.257Z,56.90
2018-04-18T19:37:02.910Z,58.10
2018-04-18T19:39:30.688Z,59.10
2018-04-18T19:41:58.371Z,60.00
2018-04-18T19:44:26.109Z,60.70
2018-04-18T19:46:53.780Z,60.60
2018-04-18T19:49:21.384Z,60.90
2018-04-18T19:51:49.837Z,60.00
2018-04-18T19:54:17.680Z,60.00
2018-04-18T19:56:45.373Z,59.60
2018-04-18T19:59:13.148Z,60.10
2018-04-18T20:01:40.902Z,59.30
2018-04-18T20:04:10.955Z,62.80
2018-04-18T20:06:38.703Z,62.80
2018-04-18T20:09:06.349Z,63.70
2018-04-18T20:11:34.083Z,63.40
2018-04-18T20:14:01.948Z,63.70
2018-04-18T20:16:29.572Z,62.30
2018-04-18T20:18:57.376Z,62.20
2018-04-18T20:21:25.028Z,62.20
2018-04-18T20:23:52.640Z,62.60
2018-04-18T20:26:21.059Z,62.80
2018-04-18T20:28:48.773Z,62.70
2018-04-18T20:31:16.610Z,62.60
2018-04-18T20:33:44.224Z,62.50
2018-04-18T20:36:12.601Z,62.50
2018-04-18T20:38:41.008Z,62.50
2018-04-18T20:41:08.639Z,62.50
2018-04-18T20:43:37.052Z,63.50
2018-04-18T20:46:04.770Z,63.50
2018-04-18T20:48:32.499Z,63.40
2018-04-18T20:51:00.298Z,62.80
2018-04-18T20:53:28.133Z,63.50
2018-04-18T20:55:55.780Z,65.10
2018-04-18T20:58:23.404Z,64.50
2018-04-18T21:00:51.895Z,64.50
2018-04-18T21:03:20.264Z,64.20
2018-04-18T21:05:48.648Z,64.60
2018-04-18T21:08:17.106Z,65.10
2018-04-18T21:10:44.767Z,65.00
2018-04-18T21:13:12.501Z,65.50
2018-04-18T21:15:40.112Z,65.50
2018-04-18T21:18:08.762Z,65.00
2018-04-18T21:20:36.419Z,65.00
2018-04-18T21:23:04.023Z,66.00
2018-04-18T21:25:32.441Z,65.30
2018-04-18T21:28:00.219Z,65.20
2018-04-18T21:30:27.990Z,65.70
2018-04-18T21:32:55.643Z,65.80
2018-04-18T21:35:23.252Z,65.50
2018-04-18T21:37:51.685Z,65.60
2018-04-18T21:40:19.481Z,65.60
2018-04-18T21:42:47.121Z,65.70
2018-04-18T21:45:14.733Z,65.90
2018-04-18T21:47:43.170Z,66.70
2018-04-18T21:50:10.779Z,66.60
2018-04-18T21:52:39.181Z,66.50
2018-04-18T21:55:06.884Z,66.30
2018-04-18T21:57:34.657Z,66.50
2018-04-18T22:00:02.418Z,66.70
2018-04-18T22:02:30.079Z,67.30
2018-04-18T22:04:57.700Z,66.70
2018-04-18T22:07:25.341Z,66.50
2018-04-18T22:09:53.255Z,67.00
2018-04-18T22:12:20.913Z,66.70
2018-04-18T22:14:48.668Z,66.70
2018-04-18T22:17:16.342Z,67.00
2018-04-18T22:19:44.095Z,67.10
2018-04-18T22:22:11.707Z,67.60
2018-04-18T22:24:40.182Z,67.50
2018-04-18T22:27:07.780Z,67.40
2018-04-18T22:29:36.295Z,67.90
2018-04-18T22:32:04.053Z,67.90
2018-04-18T22:34:31.709Z,68.00
2018-04-18T22:36:59.403Z,68.00
2018-04-18T22:39:27.784Z,68.80
2018-04-18T22:41:55.564Z,68.90
2018-04-18T22:44:23.989Z,68.30
2018-04-18T22:46:51.605Z,68.30
2018-04-18T22:49:20.061Z,68.90
2018-04-18T22:51:48.445Z,68.70
2018-04-18T22:54:16.284Z,68.70
2018-04-18T22:56:44.049Z,68.30
2018-04-18T22:59:11.659Z,68.50
2018-04-18T23:01:41.025Z,68.80
2018-04-18T23:04:08.652Z,68.60
2018-04-18T23:06:36.269Z,68.30
2018-04-18T23:09:04.688Z,69.60
2018-04-18T23:11:32.296Z,70.20
2018-04-18T23:14:00.144Z,69.30
2018-04-18T23:16:27.808Z,69.20
2018-04-18T23:18:55.533Z,69.40
2018-04-18T23:21:23.339Z,69.40
2018-04-18T23:23:51.129Z,68.80
2018-04-18T23:26:18.797Z,68.90
2018-04-18T23:28:46.560Z,69.00
2018-04-18T23:31:14.291Z,68.50
2018-04-18T23:33:41.973Z,68.60
2018-04-18T23:36:09.731Z,68.70
2018-04-18T23:38:37.348Z,69.20
2018-04-18T23:41:05.758Z,68.90
2018-04-18T23:43:33.397Z,68.90
2018-04-18T23:46:01.187Z,69.10
2018-04-18T23:48:28.855Z,68.80
2018-04-18T23:50:56.614Z,68.60
2018-04-18T23:53:24.379Z,69.10
2018-04-18T23:55:52.145Z,69.60
2018-04-18T23:58:20.016Z,69.40
